Time;durP1;ratioP1;P1;durP2;ratioP2;P2;SDS_P1;SDS_P2;PMS_P1;PMS_P2;Temp;Humidity;BMP_temperature;BMP_pressure;BME280_temperature;BME280_humidity;BME280_pressure;Samples;Min_cycle;Max_cycle;Signal;HPM_P1;HPM_P2
2023/06/19 00:01:07;;;;;;;5.73;4.63;;;;;;;23.69;50.84;99205.00;4958905;28;20225;-78
2023/06/19 00:03:33;;;;;;;7.07;4.60;;;;;;;23.72;51.33;99201.16;4958540;28;20219;-77
2023/06/19 00:05:58;;;;;;;3.97;3.57;;;;;;;23.72;51.47;99203.84;4948501;28;20728;-77
2023/06/19 00:08:24;;;;;;;7.97;3.10;;;;;;;23.73;51.51;99218.88;4958951;28;20221;-78
2023/06/19 00:10:50;;;;;;;3.90;3.60;;;;;;;23.71;51.58;99212.84;4959218;28;20227;-78
2023/06/19 00:13:15;;;;;;;5.00;4.50;;;;;;;23.67;51.99;99216.94;4958935;28;20470;-78
2023/06/19 00:15:40;;;;;;;7.33;3.80;;;;;;;23.63;51.85;99220.03;4957464;28;20903;-78
2023/06/19 00:18:06;;;;;;;7.97;5.17;;;;;;;23.59;52.20;99215.22;4959298;28;20220;-78
2023/06/19 00:20:32;;;;;;;6.17;4.77;;;;;;;23.54;52.46;99231.03;4958333;28;20211;-79
2023/06/19 00:22:57;;;;;;;4.90;4.40;;;;;;;23.47;53.00;99247.06;4958654;28;20470;-78
2023/06/19 00:25:23;;;;;;;6.57;5.97;;;;;;;23.41;53.00;99240.63;4957645;28;20271;-78
2023/06/19 00:27:48;;;;;;;5.57;4.93;;;;;;;23.37;53.44;99242.00;4957864;28;20237;-78
2023/06/19 00:30:15;;;;;;;6.30;4.50;;;;;;;23.35;53.74;99243.22;4958099;28;20206;-78
2023/06/19 00:32:47;;;;;;;4.90;4.40;;;;;;;23.34;53.69;99237.03;4959479;28;20289;-78
2023/06/19 00:35:17;;;;;;;5.37;4.87;;;;;;;23.34;53.97;99236.22;4962699;28;21018;-78
2023/06/19 00:37:44;;;;;;;5.70;4.63;;;;;;;23.35;53.66;99238.69;4977643;23;21020;-77
2023/06/19 00:40:21;;;;;;;5.97;4.83;;;;;;;23.38;53.88;99240.16;4957936;28;20465;-77
2023/06/19 00:42:46;;;;;;;6.50;4.80;;;;;;;23.35;53.47;99232.50;4964503;28;20659;-77
2023/06/19 00:45:12;;;;;;;7.20;5.43;;;;;;;23.33;53.80;99234.53;4966628;28;20463;-77
2023/06/19 00:47:37;;;;;;;5.10;4.60;;;;;;;23.32;53.45;99239.06;4969469;28;20519;-77
2023/06/19 00:50:04;;;;;;;5.73;4.77;;;;;;;23.35;53.38;99253.94;4970117;28;20233;-77
2023/06/19 00:52:29;;;;;;;7.90;4.50;;;;;;;23.42;53.19;99263.72;4972363;28;20295;-77
2023/06/19 00:54:54;;;;;;;7.07;5.10;;;;;;;23.49;53.19;99279.84;4953595;28;20442;-77
2023/06/19 00:57:20;;;;;;;6.60;5.70;;;;;;;23.54;52.77;99285.50;4969696;28;20709;-77
2023/06/19 00:59:46;;;;;;;4.83;4.43;;;;;;;23.60;52.67;99289.25;4972527;28;20717;-77
2023/06/19 01:02:11;;;;;;;5.07;4.30;;;;;;;23.63;52.49;99288.91;4970996;28;21013;-77
2023/06/19 01:04:37;;;;;;;11.57;4.70;;;;;;;23.67;52.12;99290.19;4972416;28;20699;-77
2023/06/19 01:07:17;;;;;;;5.83;5.23;;;;;;;23.70;51.99;99299.69;4971527;28;20580;-77
2023/06/19 01:09:47;;;;;;;4.73;4.33;;;;;;;;;;4966854;28;20592;-77
2023/06/19 01:12:19;;;;;;;6.30;4.53;;;;;;;23.78;51.98;99324.56;4948940;28;20544;-76
2023/06/19 01:14:57;;;;;;;4.67;4.23;;;;;;;23.74;52.60;99311.75;4969811;28;20460;-76
2023/06/19 01:17:22;;;;;;;5.10;4.53;;;;;;;23.68;53.13;99325.84;4972963;28;20545;-76
2023/06/19 01:19:48;;;;;;;15.90;6.20;;;;;;;23.63;54.08;99321.09;4972944;28;21342;-76
2023/06/19 01:22:43;;;;;;;5.60;4.73;;;;;;;23.52;55.35;99330.44;4973253;28;20208;-76
2023/06/19 01:25:13;;;;;;;8.13;5.50;;;;;;;23.36;56.00;99327.97;4943710;28;20221;-76
2023/06/19 01:27:41;;;;;;;6.80;5.80;;;;;;;23.20;56.73;99334.38;4959848;28;21005;-77
2023/06/19 01:30:07;;;;;;;7.13;5.70;;;;;;;23.09;57.76;99327.63;4975635;28;20792;-76
2023/06/19 01:33:09;;;;;;;6.00;5.23;;;;;;;22.93;58.86;99335.81;4968127;28;20550;-77
2023/06/19 01:35:36;;;;;;;9.10;5.97;;;;;;;22.78;59.61;99333.13;4968086;28;20440;-77
2023/06/19 01:38:03;;;;;;;7.80;4.43;;;;;;;22.69;60.39;99343.09;4950535;28;20244;-76
2023/06/19 01:40:32;;;;;;;5.33;4.83;;;;;;;22.62;60.68;99343.97;4965323;28;20458;-76
2023/06/19 01:43:00;;;;;;;4.93;3.83;;;;;;;22.55;60.82;99335.88;4952622;28;20463;-76
2023/06/19 01:45:28;;;;;;;5.77;4.27;;;;;;;22.45;61.18;99332.59;4948728;28;20451;-76
2023/06/19 01:47:54;;;;;;;4.70;4.30;;;;;;;22.30;61.79;99325.38;4964760;28;20487;-76
2023/06/19 01:50:22;;;;;;;7.87;4.10;;;;;;;22.13;62.33;99320.28;4973605;28;20462;-76
2023/06/19 01:52:47;;;;;;;7.10;5.23;;;;;;;21.91;63.44;99313.94;4950709;28;20276;-76
2023/06/19 01:55:13;;;;;;;6.87;5.00;;;;;;;21.68;64.15;99309.38;4969727;28;20469;-76
2023/06/19 01:57:39;;;;;;;5.20;4.70;;;;;;;21.56;64.99;99298.28;4971114;28;20217;-76
2023/06/19 02:00:10;;;;;;;6.53;5.43;;;;;;;21.47;65.58;99294.00;4947855;28;20443;-76
2023/06/19 02:02:41;;;;;;;7.10;5.18;;;;;;;21.41;65.87;99295.53;4948281;28;20541;-76
2023/06/19 02:05:07;;;;;;;9.50;4.90;;;;;;;21.42;65.85;99305.19;4950998;28;20217;-76
2023/06/19 02:07:32;;;;;;;5.70;4.80;;;;;;;21.48;66.04;99310.84;4966970;28;20217;-77
2023/06/19 02:09:58;;;;;;;8.40;4.77;;;;;;;21.54;66.04;99312.81;4972230;28;20668;-76
2023/06/19 02:12:23;;;;;;;6.20;4.90;;;;;;;21.59;65.89;99311.28;4967458;28;20209;-76
2023/06/19 02:14:48;;;;;;;6.27;5.47;;;;;;;21.60;65.96;99310.28;4966194;28;20219;-76
2023/06/19 02:17:14;;;;;;;8.43;5.23;;;;;;;21.63;65.95;99312.59;4963178;28;20480;-76
2023/06/19 02:19:40;;;;;;;6.43;5.60;;;;;;;21.69;66.21;99316.41;4969605;28;20222;-76
2023/06/19 02:22:06;;;;;;;4.90;4.43;;;;;;;21.75;66.08;99329.06;4970704;28;20218;-76
2023/06/19 02:24:32;;;;;;;5.80;4.33;;;;;;;21.73;66.55;99327.56;4958013;28;20391;-76
2023/06/19 02:26:58;;;;;;;5.67;4.93;;;;;;;21.68;66.94;99329.94;4952839;28;20476;-76
2023/06/19 02:29:23;;;;;;;7.40;5.07;;;;;;;21.64;66.92;99329.47;4967359;28;20552;-76
2023/06/19 02:31:49;;;;;;;6.30;5.03;;;;;;;21.62;66.96;99318.94;4951841;28;20485;-76
2023/06/19 02:34:15;;;;;;;7.63;4.70;;;;;;;21.60;67.01;99306.75;4968978;28;20201;-76
2023/06/19 02:36:40;;;;;;;7.00;5.80;;;;;;;21.61;67.32;99309.28;4969494;28;20735;-77
2023/06/19 02:39:08;;;;;;;7.40;4.60;;;;;;;21.63;67.20;99296.56;4956404;28;20739;-76
2023/06/19 02:41:34;;;;;;;5.90;4.80;;;;;;;21.59;67.18;99299.75;4967713;28;20462;-77
2023/06/19 02:43:59;;;;;;;6.80;4.30;;;;;;;21.57;67.26;99302.59;4974712;28;20422;-76
2023/06/19 02:46:24;;;;;;;5.77;4.73;;;;;;;21.54;67.11;99307.47;4972032;28;20560;-77
2023/06/19 02:48:50;;;;;;;9.30;4.73;;;;;;;21.51;67.38;99299.81;4970845;28;20573;-76
2023/06/19 02:51:15;;;;;;;6.37;5.20;;;;;;;21.46;67.62;99300.31;4949208;28;20252;-76
2023/06/19 02:53:41;;;;;;;6.90;5.30;;;;;;;21.37;67.85;99293.34;4968070;28;20331;-76
2023/06/19 02:56:08;;;;;;;9.83;4.93;;;;;;;21.31;67.88;99291.38;4964425;28;20234;-76
2023/06/19 02:58:34;;;;;;;9.70;4.80;;;;;;;21.31;67.98;99292.22;4953145;28;20487;-76
2023/06/19 03:01:00;;;;;;;5.50;4.73;;;;;;;21.34;68.23;99288.34;4966271;28;20210;-77
2023/06/19 03:03:25;;;;;;;7.93;4.63;;;;;;;21.32;68.25;99282.34;4964667;28;20215;-76
2023/06/19 03:05:51;;;;;;;5.67;4.63;;;;;;;21.27;68.46;99276.69;4944265;28;20689;-76
2023/06/19 03:08:16;;;;;;;7.97;5.23;;;;;;;21.23;68.78;99283.41;4966178;28;20212;-76
2023/06/19 03:10:42;;;;;;;9.20;4.77;;;;;;;21.25;68.93;99282.19;4969419;28;20301;-77
2023/06/19 03:13:07;;;;;;;5.20;4.40;;;;;;;21.23;68.88;99278.88;4970017;28;20235;-77
2023/06/19 03:15:32;;;;;;;4.07;3.43;;;;;;;21.18;68.85;99273.22;4961912;28;20204;-79
2023/06/19 03:17:58;;;;;;;3.40;3.10;;;;;;;21.14;69.07;99275.44;4968368;28;20223;-77
2023/06/19 03:20:24;;;;;;;5.43;3.83;;;;;;;21.09;69.28;99268.91;4948875;28;20220;-76
2023/06/19 03:22:55;;;;;;;5.80;3.87;;;;;;;21.00;69.43;99270.78;4951968;28;20533;-77
2023/06/19 03:25:22;;;;;;;5.70;5.10;;;;;;;20.99;69.39;99266.47;4947221;28;20426;-77
2023/06/19 03:27:47;;;;;;;5.27;3.63;;;;;;;21.05;69.32;99270.28;4960979;28;20468;-77
2023/06/19 03:30:13;;;;;;;7.33;4.10;;;;;;;21.09;68.85;99274.25;4960024;28;20208;-76
2023/06/19 03:32:40;;;;;;;4.22;3.65;;;;;;;21.12;69.02;99287.28;4954173;28;20077;-77
2023/06/19 03:35:10;;;;;;;5.05;3.90;;;;;;;21.12;68.96;99285.44;4948663;28;20803;-76
2023/06/19 03:37:40;;;;;;;4.60;3.63;;;;;;;21.12;69.19;99279.28;4967572;28;20233;-77
2023/06/19 03:40:06;;;;;;;5.80;4.10;;;;;;;21.12;69.19;99276.59;4968286;28;20427;-77
2023/06/19 03:42:36;;;;;;;6.10;4.30;;;;;;;21.14;69.16;99285.25;4968050;28;20202;-77
2023/06/19 03:45:02;;;;;;;4.90;4.30;;;;;;;21.17;69.17;99282.22;4964121;28;20452;-77
2023/06/19 03:47:27;;;;;;;5.80;3.90;;;;;;;21.24;69.16;99285.06;4951073;28;20310;-77
2023/06/19 03:49:52;;;;;;;3.97;3.50;;;;;;;21.28;69.21;99281.00;4955813;28;20212;-77
2023/06/19 03:52:18;;;;;;;5.50;3.37;;;;;;;21.32;69.02;99282.34;4966462;28;20204;-77
2023/06/19 03:54:43;;;;;;;4.13;3.67;;;;;;;21.38;69.46;99287.00;4966586;28;20299;-78
2023/06/19 03:57:09;;;;;;;4.07;3.67;;;;;;;21.40;69.29;99277.81;4970197;28;20213;-77
2023/06/19 03:59:34;;;;;;;5.33;3.73;;;;;;;21.44;69.39;99278.28;4958568;28;20207;-77
2023/06/19 04:02:00;;;;;;;5.67;4.23;;;;;;;21.47;69.24;99279.78;4965696;28;20228;-77
2023/06/19 04:04:25;;;;;;;6.43;4.00;;;;;;;21.50;69.45;99287.47;4966672;28;20212;-78
2023/06/19 04:06:51;;;;;;;8.50;5.40;;;;;;;21.52;69.40;99282.75;4953902;28;20271;-77
2023/06/19 04:09:16;;;;;;;4.90;4.50;;;;;;;21.55;69.38;99287.75;4953973;28;20622;-77
2023/06/19 04:11:41;;;;;;;6.27;5.70;;;;;;;21.56;69.15;99284.91;4956668;28;20201;-77
2023/06/19 04:14:07;;;;;;;4.83;4.33;;;;;;;21.58;69.13;99287.41;4952997;28;20666;-77
2023/06/19 04:16:32;;;;;;;5.20;4.70;;;;;;;21.60;68.94;99296.06;4970365;28;20290;-77
2023/06/19 04:18:57;;;;;;;7.33;4.00;;;;;;;21.63;69.09;99295.75;4969917;28;20220;-77
2023/06/19 04:21:23;;;;;;;7.50;4.40;;;;;;;21.65;69.11;99285.69;4968388;28;20699;-77
2023/06/19 04:23:48;;;;;;;6.83;5.03;;;;;;;21.64;69.08;99282.19;4952411;28;20873;-77
2023/06/19 04:26:14;;;;;;;4.70;4.20;;;;;;;21.66;69.01;99290.03;4971112;28;20300;-77
2023/06/19 04:28:39;;;;;;;5.90;5.00;;;;;;;21.63;69.30;99295.75;4975139;28;20212;-77
2023/06/19 04:31:05;;;;;;;5.40;4.20;;;;;;;21.57;69.70;99305.28;4976330;28;20236;-77
2023/06/19 04:33:33;;;;;;;6.60;5.93;;;;;;;21.50;69.98;99303.50;4972320;28;20216;-77
2023/06/19 04:35:58;;;;;;;5.07;4.57;;;;;;;21.50;70.12;99303.50;4973212;28;20710;-77
2023/06/19 04:38:24;;;;;;;5.37;4.47;;;;;;;21.51;69.82;99291.78;4969670;28;20479;-77
2023/06/19 04:40:50;;;;;;;6.90;5.10;;;;;;;21.51;69.85;99286.44;4973710;28;20585;-77
2023/06/19 04:43:16;;;;;;;5.00;4.30;;;;;;;21.49;70.00;99275.09;4967102;28;20208;-77
2023/06/19 04:45:42;;;;;;;6.80;5.47;;;;;;;21.50;70.01;99282.94;4970939;28;20452;-77
2023/06/19 04:48:07;;;;;;;7.90;5.13;;;;;;;21.50;70.04;99274.94;4969498;28;20215;-77
2023/06/19 04:50:33;;;;;;;6.63;5.37;;;;;;;21.47;70.50;99267.28;4972737;28;21140;-77
2023/06/19 04:52:58;;;;;;;7.40;5.77;;;;;;;21.42;70.66;99267.78;4971448;28;20285;-77
2023/06/19 04:55:25;;;;;;;9.73;4.87;;;;;;;21.42;71.08;99262.44;4968921;28;20214;-77
2023/06/19 04:57:50;;;;;;;7.70;4.87;;;;;;;21.46;71.30;99248.72;4971614;28;20443;-77
2023/06/19 05:00:18;;;;;;;8.87;6.70;;;;;;;21.43;71.26;99253.41;4972703;28;20953;-77
2023/06/19 05:02:45;;;;;;;6.43;5.10;;;;;;;21.48;71.18;99247.53;4975052;28;20197;-77
2023/06/19 05:05:11;;;;;;;7.27;5.90;;;;;;;21.66;70.91;99247.28;4970276;28;21055;-77
2023/06/19 05:07:36;;;;;;;6.80;5.43;;;;;;;22.02;70.34;99247.47;4975062;28;20555;-77
2023/06/19 05:10:02;;;;;;;7.17;5.17;;;;;;;22.50;68.49;99240.03;4972857;28;20231;-77
2023/06/19 05:12:27;;;;;;;7.33;5.73;;;;;;;22.87;67.10;99246.34;4970928;28;20348;-77
2023/06/19 05:14:52;;;;;;;7.60;5.20;;;;;;;23.04;66.32;99244.31;4969497;28;20199;-78
2023/06/19 05:17:18;;;;;;;6.67;5.47;;;;;;;23.02;66.19;99246.34;4972766;28;20199;-77
2023/06/19 05:19:43;;;;;;;5.93;4.77;;;;;;;22.91;66.43;99239.56;4969374;28;20216;-77
2023/06/19 05:22:09;;;;;;;7.53;5.40;;;;;;;22.86;66.87;99235.78;4971170;28;20314;-77
2023/06/19 05:24:34;;;;;;;7.23;5.73;;;;;;;22.84;66.86;99248.53;4974060;28;20344;-76
2023/06/19 05:26:59;;;;;;;6.60;5.97;;;;;;;22.84;67.22;99251.19;4973463;28;20203;-77
2023/06/19 05:29:25;;;;;;;6.97;5.80;;;;;;;22.81;66.98;99246.22;4971914;28;20227;-77
2023/06/19 05:31:51;;;;;;;8.33;5.73;;;;;;;22.78;67.31;99241.25;4973332;28;20609;-77
2023/06/19 05:34:17;;;;;;;8.03;5.30;;;;;;;22.70;67.38;99232.28;4973327;28;20253;-77
2023/06/19 05:36:46;;;;;;;5.93;5.33;;;;;;;22.65;67.25;99247.25;4968194;28;20214;-77
2023/06/19 05:39:13;;;;;;;5.70;4.43;;;;;;;22.61;67.70;99241.44;4977508;28;20452;-77
2023/06/19 05:41:38;;;;;;;6.67;6.00;;;;;;;22.61;67.57;99241.44;4971172;28;20720;-77
2023/06/19 05:44:03;;;;;;;6.83;4.83;;;;;;;22.59;67.66;99239.94;4973384;28;20495;-77
2023/06/19 05:46:29;;;;;;;10.80;5.30;;;;;;;22.60;67.68;99250.50;4955410;28;20746;-77
2023/06/19 05:48:54;;;;;;;7.40;4.83;;;;;;;22.67;67.73;99256.75;4971041;28;20220;-76
2023/06/19 05:51:20;;;;;;;7.80;5.30;;;;;;;22.81;67.42;99259.63;4969976;28;20196;-76
2023/06/19 05:53:46;;;;;;;5.43;4.70;;;;;;;22.90;67.47;99266.53;4961923;28;20661;-76
2023/06/19 05:56:12;;;;;;;7.73;6.13;;;;;;;23.00;66.96;99263.59;4971543;28;20481;-76
2023/06/19 05:58:37;;;;;;;7.83;4.90;;;;;;;23.10;67.18;99277.56;4969747;28;20813;-77
2023/06/19 06:01:03;;;;;;;7.63;5.40;;;;;;;23.24;66.59;99281.22;4970787;28;20254;-76
2023/06/19 06:03:30;;;;;;;5.93;5.33;;;;;;;23.40;66.50;99276.47;4962093;28;20253;-77
2023/06/19 06:06:02;;;;;;;8.83;5.67;;;;;;;23.65;65.96;99270.75;4965339;28;20196;-77
2023/06/19 06:08:28;;;;;;;6.33;5.37;;;;;;;24.08;64.41;99287.72;4967104;28;20504;-77
2023/06/19 06:10:53;;;;;;;7.63;5.00;;;;;;;24.68;62.49;99263.19;4969732;28;21004;-77
2023/06/19 06:13:19;;;;;;;6.10;5.50;;;;;;;25.29;60.55;99274.09;4970840;28;20464;-77
2023/06/19 06:15:44;;;;;;;5.17;4.67;;;;;;;25.83;58.61;99257.09;4970564;28;20315;-77
2023/06/19 06:18:10;;;;;;;5.40;4.90;;;;;;;26.35;56.72;99264.56;4970725;28;20212;-77
2023/06/19 06:20:35;;;;;;;5.00;4.30;;;;;;;26.87;55.05;99257.47;4966223;28;20222;-77
2023/06/19 06:23:00;;;;;;;5.03;3.83;;;;;;;27.39;53.04;99261.00;4962383;28;20822;-77
2023/06/19 06:25:26;;;;;;;4.70;4.17;;;;;;;27.85;52.08;99249.13;4961423;28;20202;-76
2023/06/19 06:27:51;;;;;;;4.93;4.27;;;;;;;28.28;50.89;99261.88;4971667;28;20217;-77
2023/06/19 06:30:17;;;;;;;5.00;4.57;;;;;;;28.80;49.65;99256.19;4971239;28;20259;-77
2023/06/19 06:32:42;;;;;;;6.57;5.00;;;;;;;29.21;48.02;99260.94;4960367;28;20682;-77
2023/06/19 06:35:08;;;;;;;6.43;5.03;;;;;;;29.44;47.74;99260.22;4969564;28;20190;-77
2023/06/19 06:37:33;;;;;;;5.57;4.47;;;;;;;29.58;46.54;99266.28;4970283;28;20223;-77
2023/06/19 06:39:59;;;;;;;6.17;5.20;;;;;;;29.90;45.89;99272.28;4971210;28;20321;-77
2023/06/19 06:42:24;;;;;;;4.47;4.07;;;;;;;29.90;45.72;99277.69;4968258;28;20271;-77
2023/06/19 06:44:49;;;;;;;5.10;4.60;;;;;;;29.78;46.19;99280.34;4965087;28;20304;-77
2023/06/19 06:47:15;;;;;;;4.90;4.13;;;;;;;29.80;46.28;99284.75;4969985;28;20299;-77
2023/06/19 06:49:40;;;;;;;5.77;5.27;;;;;;;29.92;45.94;99278.31;4966667;28;20429;-77
2023/06/19 06:52:07;;;;;;;5.80;4.80;;;;;;;30.04;45.39;99280.22;5070788;23;20342;-76
2023/06/19 06:54:32;;;;;;;5.50;4.80;;;;;;;29.76;45.51;99281.69;4965433;28;20203;-77
2023/06/19 06:56:59;;;;;;;4.93;4.47;;;;;;;29.36;46.30;99279.47;4969201;28;21145;-76
2023/06/19 06:59:26;;;;;;;5.67;5.07;;;;;;;29.30;46.61;99291.19;4959559;28;20208;-77
2023/06/19 07:01:53;;;;;;;5.53;5.00;;;;;;;29.58;46.25;99292.53;4960399;28;20486;-77
2023/06/19 07:04:18;;;;;;;5.83;5.23;;;;;;;29.99;45.17;99294.44;4958943;28;20809;-76
2023/06/19 07:06:44;;;;;;;6.23;4.03;;;;;;;30.42;43.99;99298.78;4957946;28;20449;-77
2023/06/19 07:09:10;;;;;;;7.00;4.50;;;;;;;30.94;42.49;99298.91;4961095;28;20215;-76
2023/06/19 07:11:35;;;;;;;5.40;4.43;;;;;;;31.38;41.66;99288.47;4959875;28;20264;-77
2023/06/19 07:14:01;;;;;;;5.00;4.10;;;;;;;31.49;41.37;99293.00;4959158;28;20468;-76
2023/06/19 07:16:27;;;;;;;5.70;5.20;;;;;;;31.42;40.90;99288.78;4961318;28;20283;-75
2023/06/19 07:18:52;;;;;;;4.90;4.50;;;;;;;31.18;41.11;99283.41;4960073;28;20570;-77
2023/06/19 07:21:18;;;;;;;5.73;5.13;;;;;;;30.91;41.80;99293.94;4959813;28;20375;-76
2023/06/19 07:23:45;;;;;;;4.60;4.20;;;;;;;30.77;42.52;99295.25;4958542;28;20516;-77
2023/06/19 07:26:11;;;;;;;5.57;4.97;;;;;;;31.00;41.30;99288.97;4958841;28;20314;-76
2023/06/19 07:28:36;;;;;;;4.50;4.00;;;;;;;31.19;41.09;99284.22;4956919;28;20590;-77
2023/06/19 07:31:03;;;;;;;4.83;4.33;;;;;;;31.36;40.74;99278.88;4957240;28;20196;-75
2023/06/19 07:33:29;;;;;;;6.00;4.13;;;;;;;31.55;40.33;99287.69;4952178;28;20431;-75
2023/06/19 07:35:55;;;;;;;4.53;3.90;;;;;;;31.67;39.87;99294.69;4956652;28;20455;-77
2023/06/19 07:38:20;;;;;;;5.37;4.77;;;;;;;31.78;39.13;99284.03;4956051;28;20471;-77
2023/06/19 07:40:46;;;;;;;5.23;4.47;;;;;;;31.75;39.39;99279.91;4958813;28;20419;-76
2023/06/19 07:43:11;;;;;;;4.67;4.37;;;;;;;31.41;39.70;99295.28;4958539;28;20197;-77
2023/06/19 07:45:36;;;;;;;5.17;4.67;;;;;;;30.96;40.42;99293.25;4941927;28;20267;-76
2023/06/19 07:48:02;;;;;;;4.90;4.50;;;;;;;30.50;41.41;99284.88;4957348;28;20248;-76
2023/06/19 07:50:28;;;;;;;4.67;4.27;;;;;;;30.10;41.59;99288.22;4957632;28;20243;-74
2023/06/19 07:52:53;;;;;;;5.53;4.53;;;;;;;29.74;42.47;99286.50;4956091;28;20306;-75
2023/06/19 07:55:18;;;;;;;4.60;4.17;;;;;;;29.54;43.31;99286.72;4958168;28;20583;-76
2023/06/19 07:57:44;;;;;;;5.47;4.97;;;;;;;29.53;43.46;99285.91;4959515;28;20704;-75
2023/06/19 08:00:13;;;;;;;6.37;4.00;;;;;;;29.66;42.59;99286.81;4957942;28;20214;-76
2023/06/19 08:02:39;;;;;;;6.83;4.80;;;;;;;29.89;42.37;99286.03;4958183;28;20709;-75
2023/06/19 08:05:05;;;;;;;5.33;4.93;;;;;;;30.29;41.62;99282.75;4939859;28;20441;-77
2023/06/19 08:07:30;;;;;;;5.70;5.20;;;;;;;30.73;40.58;99292.19;4930993;28;20568;-76
2023/06/19 08:09:55;;;;;;;5.00;4.60;;;;;;;31.15;39.69;99281.16;4958751;28;20267;-75
2023/06/19 08:12:21;;;;;;;5.13;4.33;;;;;;;31.39;38.80;99270.28;4959334;28;20787;-77
2023/06/19 08:14:46;;;;;;;4.80;4.30;;;;;;;31.26;38.30;99283.00;4957099;28;20204;-76
2023/06/19 08:17:11;;;;;;;5.07;4.57;;;;;;;31.25;38.85;99270.53;4958821;28;20632;-75
2023/06/19 08:19:38;;;;;;;5.17;4.77;;;;;;;31.31;38.60;99263.31;4958057;28;20530;-77
2023/06/19 08:22:05;;;;;;;6.23;5.07;;;;;;;31.40;38.13;99261.88;4957074;28;20454;-75
2023/06/19 08:24:30;;;;;;;5.07;4.57;;;;;;;31.41;38.37;99266.25;4957376;28;21052;-76
2023/06/19 08:26:56;;;;;;;4.20;3.80;;;;;;;31.40;37.76;99263.78;4957552;28;20471;-76
2023/06/19 08:29:22;;;;;;;5.03;4.63;;;;;;;31.34;37.65;99262.00;4958251;28;20205;-76
2023/06/19 08:31:48;;;;;;;7.00;5.70;;;;;;;31.15;37.30;99264.88;4958415;28;20742;-76
2023/06/19 08:34:13;;;;;;;5.00;4.50;;;;;;;30.78;38.34;99267.06;4935540;28;20458;-76
2023/06/19 08:36:39;;;;;;;6.87;5.50;;;;;;;30.51;38.55;99266.72;4956034;28;20439;-76
2023/06/19 08:39:04;;;;;;;5.43;4.93;;;;;;;30.30;39.15;99265.41;4959117;28;20541;-76
2023/06/19 08:41:31;;;;;;;5.27;4.57;;;;;;;30.19;39.77;99267.88;4940764;28;20340;-75
2023/06/19 08:43:56;;;;;;;4.97;4.53;;;;;;;30.28;39.43;99265.66;4956241;28;20467;-76
2023/06/19 08:46:21;;;;;;;5.33;4.83;;;;;;;30.47;38.73;99258.25;4958663;28;20207;-76
2023/06/19 08:48:50;;;;;;;5.07;4.57;;;;;;;30.56;38.66;99256.81;4939253;28;20712;-75
2023/06/19 08:51:15;;;;;;;5.37;4.87;;;;;;;30.52;38.90;99250.25;4958318;28;20484;-76
2023/06/19 08:53:46;;;;;;;5.70;4.57;;;;;;;30.37;39.26;99258.81;4957164;28;20732;-76
2023/06/19 08:56:12;;;;;;;5.43;4.93;;;;;;;30.43;38.83;99257.91;4961776;28;20490;-76
2023/06/19 08:58:38;;;;;;;5.40;4.90;;;;;;;30.65;39.06;99251.88;4959553;28;20459;-76
2023/06/19 09:01:03;;;;;;;4.83;4.33;;;;;;;30.85;38.06;99248.81;4961016;28;20384;-75
2023/06/19 09:03:29;;;;;;;4.50;4.10;;;;;;;30.94;38.27;99241.94;4962118;28;20223;-76
2023/06/19 09:05:54;;;;;;;8.33;4.60;;;;;;;31.00;37.18;99248.28;4961977;28;20243;-75
2023/06/19 09:08:22;;;;;;;6.07;4.63;;;;;;;31.08;37.21;99245.19;4960141;28;20841;-76
2023/06/19 09:11:06;;;;;;;6.90;5.10;;;;;;;31.25;36.63;99248.00;4944438;28;20543;-76
2023/06/19 09:13:32;;;;;;;4.83;4.43;;;;;;;31.49;34.94;99246.88;4960534;28;20459;-75
2023/06/19 09:16:02;;;;;;;4.13;3.73;;;;;;;31.57;34.63;99244.81;4944639;28;20482;-76
2023/06/19 09:18:41;;;;;;;5.87;4.63;;;;;;;31.67;33.73;99239.56;4960038;28;20463;-77
2023/06/19 09:21:15;;;;;;;3.93;3.53;;;;;;;31.78;32.41;99243.28;4961625;28;20903;-77
2023/06/19 09:23:40;;;;;;;5.00;4.60;;;;;;;31.90;32.40;99239.44;4961163;28;20468;-77
2023/06/19 09:26:07;;;;;;;4.60;4.20;;;;;;;32.02;31.44;99241.28;4942314;28;20522;-75
2023/06/19 09:28:39;;;;;;;4.77;4.27;;;;;;;31.91;31.39;99238.34;4960691;28;20452;-76
2023/06/19 09:31:05;;;;;;;4.73;4.33;;;;;;;31.94;31.47;99235.16;4961491;28;20526;-77
2023/06/19 09:33:32;;;;;;;4.60;4.20;;;;;;;31.94;31.56;99235.16;4962468;28;20487;-76
2023/06/19 09:36:00;;;;;;;5.20;4.70;;;;;;;32.04;31.14;99231.81;4961772;28;20671;-77
2023/06/19 09:38:31;;;;;;;4.57;4.17;;;;;;;32.25;30.95;99232.94;4962283;28;20822;-76
2023/06/19 09:40:59;;;;;;;4.37;3.97;;;;;;;32.47;30.74;99216.72;4961064;28;20487;-77
2023/06/19 09:43:41;;;;;;;4.87;4.50;;;;;;;32.65;30.17;99220.22;4962364;28;20981;-77
2023/06/19 09:46:07;;;;;;;8.00;6.20;;;;;;;32.71;30.39;99216.50;4962558;28;20455;-76
2023/06/19 09:48:34;;;;;;;5.70;5.17;;;;;;;32.71;30.38;99217.31;4962449;28;20445;-77
2023/06/19 09:51:16;;;;;;;4.10;3.80;;;;;;;32.75;30.27;99207.56;4962089;28;20236;-76
2023/06/19 09:53:44;;;;;;;4.40;4.00;;;;;;;32.92;30.48;99198.50;4963066;28;20551;-76
2023/06/19 09:56:11;;;;;;;4.70;4.30;;;;;;;33.11;30.25;99210.75;4963365;28;21183;-77
2023/06/19 09:58:38;;;;;;;5.17;4.77;;;;;;;33.22;30.18;99217.16;4960942;28;20467;-77
2023/06/19 10:01:06;;;;;;;4.93;4.53;;;;;;;33.38;29.28;99209.94;4963573;28;20482;-77
2023/06/19 10:03:33;;;;;;;3.90;3.40;;;;;;;33.40;28.01;99202.34;4964202;28;20852;-77
2023/06/19 10:06:00;;;;;;;4.57;4.00;;;;;;;33.46;26.49;99204.06;4945858;28;21073;-76
2023/06/19 10:08:31;;;;;;;4.47;3.70;;;;;;;33.43;25.76;99199.94;4964406;28;20212;-75
2023/06/19 10:10:57;;;;;;;5.50;3.37;;;;;;;33.46;25.70;99195.88;4964485;28;20468;-77
2023/06/19 10:13:34;;;;;;;4.33;3.90;;;;;;;33.56;25.48;99201.44;4965006;28;20458;-76
2023/06/19 10:16:01;;;;;;;4.27;3.47;;;;;;;33.68;25.38;99191.22;4961901;28;20204;-77
2023/06/19 10:18:26;;;;;;;3.43;3.13;;;;;;;33.75;24.95;99195.59;4963652;28;20811;-79
2023/06/19 10:20:54;;;;;;;4.20;3.40;;;;;;;33.81;24.88;99186.38;4964876;28;20538;-76
2023/06/19 10:23:22;;;;;;;3.77;3.43;;;;;;;33.81;24.91;99197.28;4964534;28;20261;-77
2023/06/19 10:25:56;;;;;;;5.30;3.80;;;;;;;33.80;24.99;99201.91;4963262;28;20456;-77
2023/06/19 10:28:33;;;;;;;5.63;4.23;;;;;;;33.77;24.89;99194.28;4961467;28;20906;-76
2023/06/19 10:31:03;;;;;;;7.07;3.87;;;;;;;33.77;24.86;99190.72;4962275;28;20880;-75
2023/06/19 10:33:32;;;;;;;4.50;4.10;;;;;;;33.81;25.00;99186.38;4961226;28;20806;-76
2023/06/19 10:35:59;;;;;;;4.40;4.10;;;;;;;33.91;24.61;99192.75;4960444;28;20478;-77
2023/06/19 10:38:25;;;;;;;4.27;3.97;;;;;;;33.97;24.48;99196.31;4964363;28;20467;-76
2023/06/19 10:40:51;;;;;;;4.50;4.10;;;;;;;34.04;24.22;99190.66;4964687;28;20911;-78
2023/06/19 10:43:24;;;;;;;4.47;4.17;;;;;;;34.07;24.17;99185.53;4965760;28;20211;-78
2023/06/19 10:45:51;;;;;;;6.00;4.40;;;;;;;33.93;24.40;99179.69;4962960;28;20213;-76
2023/06/19 10:48:24;;;;;;;4.33;3.93;;;;;;;33.90;24.63;99180.22;4962754;28;20547;-78
2023/06/19 10:50:51;;;;;;;4.50;4.10;;;;;;;33.88;24.91;99187.00;4962845;28;20513;-76
2023/06/19 10:53:26;;;;;;;4.73;4.40;;;;;;;33.87;24.95;99186.19;4962308;28;20985;-77
2023/06/19 10:56:00;;;;;;;4.20;3.87;;;;;;;33.93;24.87;99184.31;4957505;28;20455;-80
2023/06/19 10:58:26;;;;;;;5.73;4.47;;;;;;;33.98;24.63;99181.63;4957611;28;20459;-78
2023/06/19 11:00:51;;;;;;;4.20;3.90;;;;;;;34.08;24.68;99173.56;4960969;28;20912;-77
2023/06/19 11:03:18;;;;;;;4.23;3.93;;;;;;;34.17;24.48;99179.34;4958647;28;20455;-78
2023/06/19 11:05:46;;;;;;;4.40;3.97;;;;;;;34.16;24.30;99169.50;4959173;28;20763;-76
2023/06/19 11:08:17;;;;;;;5.07;4.40;;;;;;;34.14;24.66;99164.31;4955419;28;20455;-74
2023/06/19 11:10:43;;;;;;;4.93;4.53;;;;;;;34.18;24.70;99172.78;4959534;28;20459;-75
2023/06/19 11:13:17;;;;;;;6.30;4.87;;;;;;;34.21;24.33;99163.28;4955985;28;20576;-76
2023/06/19 11:15:45;;;;;;;4.30;4.00;;;;;;;34.30;24.50;99167.16;4956564;28;20243;-75
2023/06/19 11:18:11;;;;;;;6.53;5.17;;;;;;;34.39;24.35;99162.81;4955770;28;20468;-75
2023/06/19 11:20:50;;;;;;;5.13;4.40;;;;;;;34.36;24.04;99163.38;4958131;28;20547;-75
2023/06/19 11:23:30;;;;;;;5.00;4.53;;;;;;;34.36;24.07;99156.00;4957376;28;20590;-75
2023/06/19 11:26:03;;;;;;;6.40;3.90;;;;;;;34.38;24.13;99153.03;4959232;28;20487;-76
2023/06/19 11:28:29;;;;;;;4.20;3.80;;;;;;;34.32;23.53;99148.59;4963489;28;21043;-77
2023/06/19 11:30:59;;;;;;;4.63;4.27;;;;;;;34.33;23.95;99155.72;4962608;28;20511;-76
2023/06/19 11:33:24;;;;;;;4.53;3.60;;;;;;;34.28;23.70;99152.97;4963280;28;20196;-75